Time;durP1;ratioP1;P1;durP2;ratioP2;P2;SDS_P1;SDS_P2;PMS_P1;PMS_P2;Temp;Humidity;BMP_temperature;BMP_pressure;BME280_temperature;BME280_humidity;BME280_pressure;Samples;Min_cycle;Max_cycle;Signal;HPM_P1;HPM_P2
2022/07/23 00:00:31;;;;;;;0.47;0.47;;;17.70;99.90;;;;;;5092363;28;20211;-73
2022/07/23 00:03:26;;;;;;;0.40;0.40;;;17.80;99.90;;;;;;5092183;28;20295;-74
2022/07/23 00:06:14;;;;;;;0.50;0.50;;;17.80;99.90;;;;;;5093059;28;20211;-73
2022/07/23 00:09:04;;;;;;;0.50;0.50;;;17.90;99.90;;;;;;5091511;28;20261;-74
2022/07/23 00:11:53;;;;;;;0.40;0.40;;;18.10;99.90;;;;;;5091523;28;20196;-77
2022/07/23 00:14:42;;;;;;;0.50;0.50;;;18.10;99.90;;;;;;5091765;28;20571;-76
2022/07/23 00:17:30;;;;;;;0.40;0.40;;;18.00;99.90;;;;;;5092197;28;20224;-73
2022/07/23 00:20:18;;;;;;;0.40;0.40;;;18.10;99.90;;;;;;5091884;28;20210;-77
2022/07/23 00:23:06;;;;;;;0.50;0.50;;;18.00;99.90;;;;;;5092549;28;20196;-74
2022/07/23 00:25:56;;;;;;;0.55;0.55;;;17.90;99.90;;;;;;5091885;28;20723;-74
2022/07/23 00:28:45;;;;;;;0.40;0.40;;;17.90;99.90;;;;;;5092286;28;20223;-74
2022/07/23 00:31:33;;;;;;;0.40;0.40;;;18.00;99.90;;;;;;5091712;28;20206;-75
2022/07/23 00:34:21;;;;;;;0.40;0.40;;;18.10;99.90;;;;;;5092077;28;20199;-73
2022/07/23 00:37:09;;;;;;;0.50;0.50;;;18.20;99.90;;;;;;5092223;28;20720;-75
2022/07/23 00:39:57;;;;;;;0.50;0.50;;;18.10;99.90;;;;;;5092148;28;20196;-76
2022/07/23 00:42:46;;;;;;;0.40;0.40;;;18.10;99.90;;;;;;5091465;28;20195;-79
2022/07/23 00:45:35;;;;;;;0.50;0.50;;;18.00;99.90;;;;;;5090772;28;20215;-73
2022/07/23 00:48:23;;;;;;;0.95;0.95;;;17.90;99.90;;;;;;5091432;28;20223;-77
2022/07/23 00:51:12;;;;;;;0.50;0.50;;;17.90;99.90;;;;;;5092307;28;20218;-77
2022/07/23 00:54:00;;;;;;;0.50;0.50;;;17.80;99.90;;;;;;5091707;28;20204;-75
2022/07/23 00:56:48;;;;;;;0.40;0.40;;;17.70;99.90;;;;;;5091321;28;20196;-78
2022/07/23 00:59:38;;;;;;;0.50;0.50;;;17.60;99.90;;;;;;5091918;28;20199;-77
2022/07/23 01:02:28;;;;;;;1.05;1.05;;;17.50;99.90;;;;;;5091940;28;20207;-73
2022/07/23 01:05:17;;;;;;;2.50;2.40;;;17.40;99.90;;;;;;5091809;28;20227;-80
2022/07/23 01:08:06;;;;;;;0.50;0.50;;;17.40;99.90;;;;;;5071992;28;20216;-76
2022/07/23 01:10:55;;;;;;;0.50;0.50;;;17.30;99.90;;;;;;5071788;28;20207;-75
2022/07/23 01:13:44;;;;;;;0.50;0.50;;;17.10;99.90;;;;;;5071702;28;20201;-78
2022/07/23 01:16:32;;;;;;;0.43;0.43;;;17.10;99.90;;;;;;5071858;28;20192;-75
2022/07/23 01:19:21;;;;;;;0.50;0.50;;;17.00;99.90;;;;;;5071200;28;20326;-73
2022/07/23 01:22:10;;;;;;;0.50;0.50;;;17.10;99.90;;;;;;5073588;28;20199;-78
2022/07/23 01:24:59;;;;;;;0.40;0.40;;;17.00;99.90;;;;;;5073651;28;20216;-80
2022/07/23 01:27:48;;;;;;;0.50;0.50;;;17.00;99.90;;;;;;5075769;28;20220;-78
2022/07/23 01:30:36;;;;;;;1.83;1.15;;;17.00;99.90;;;;;;5088920;28;20204;-73
2022/07/23 01:33:24;;;;;;;0.90;0.90;;;17.00;99.90;;;;;;5094864;28;20230;-71
2022/07/23 01:36:12;;;;;;;0.75;0.75;;;17.00;99.90;;;;;;5091377;28;20197;-72
2022/07/23 01:39:00;;;;;;;0.40;0.40;;;17.10;99.90;;;;;;5089488;28;20224;-72
2022/07/23 01:41:50;;;;;;;0.50;0.50;;;17.10;99.90;;;;;;5091013;28;20196;-75
2022/07/23 01:44:39;;;;;;;0.50;0.50;;;17.00;99.90;;;;;;5092966;28;20219;-75
2022/07/23 01:47:28;;;;;;;0.50;0.50;;;17.00;99.90;;;;;;5103788;28;20220;-73
2022/07/23 01:50:16;;;;;;;0.50;0.50;;;17.00;99.90;;;;;;5106827;28;20223;-73
2022/07/23 01:53:04;;;;;;;0.50;0.50;;;17.00;99.90;;;;;;5096235;28;20208;-73
2022/07/23 01:55:52;;;;;;;0.50;0.50;;;17.00;99.90;;;;;;5110473;28;20188;-76
2022/07/23 01:58:41;;;;;;;0.50;0.50;;;16.80;99.90;;;;;;5087364;28;20228;-74
2022/07/23 02:01:29;;;;;;;0.60;0.60;;;16.90;99.90;;;;;;5086861;28;20204;-73
2022/07/23 02:04:18;;;;;;;1.80;1.50;;;16.80;99.90;;;;;;5087130;28;20197;-76
2022/07/23 02:07:06;;;;;;;7.60;4.63;;;16.80;99.90;;;;;;5090552;28;20205;-73
2022/07/23 02:09:54;;;;;;;0.65;0.60;;;16.80;99.90;;;;;;5078281;28;20258;-75
2022/07/23 02:12:42;;;;;;;3.95;1.85;;;16.70;99.90;;;;;;5075334;28;20246;-72
2022/07/23 02:15:32;;;;;;;0.40;0.40;;;16.70;99.90;;;;;;5076422;28;20197;-73
2022/07/23 02:18:21;;;;;;;0.50;0.50;;;16.60;99.90;;;;;;5075837;28;20720;-73
2022/07/23 02:21:09;;;;;;;1.47;1.10;;;16.80;99.90;;;;;;5073999;28;20212;-75
2022/07/23 02:23:57;;;;;;;0.40;0.40;;;16.70;99.90;;;;;;5075234;28;20209;-76
2022/07/23 02:26:45;;;;;;;0.40;0.40;;;16.90;99.90;;;;;;5075054;28;20599;-76
2022/07/23 02:29:33;;;;;;;0.50;0.50;;;16.80;99.90;;;;;;5075016;28;20196;-72
2022/07/23 02:32:22;;;;;;;0.50;0.50;;;16.70;99.90;;;;;;5074033;28;20204;-74
2022/07/23 02:35:11;;;;;;;0.50;0.50;;;16.70;99.90;;;;;;5075130;28;20204;-74
2022/07/23 02:37:59;;;;;;;0.40;0.40;;;16.60;99.90;;;;;;5073915;28;20228;-75
2022/07/23 02:40:47;;;;;;;0.40;0.40;;;16.60;99.90;;;;;;5074320;28;20251;-73
2022/07/23 02:43:35;;;;;;;0.40;0.40;;;16.50;99.90;;;;;;5075415;28;20208;-74
2022/07/23 02:46:23;;;;;;;0.70;0.70;;;16.50;99.90;;;;;;5074828;28;20224;-74
2022/07/23 02:49:12;;;;;;;0.50;0.50;;;16.50;99.90;;;;;;5075233;28;20216;-74
2022/07/23 02:52:01;;;;;;;0.40;0.40;;;16.50;99.90;;;;;;5073479;28;20602;-74
2022/07/23 02:54:49;;;;;;;0.40;0.40;;;16.70;99.90;;;;;;5072794;28;20196;-74
2022/07/23 02:57:37;;;;;;;0.40;0.40;;;16.80;99.90;;;;;;5084312;28;20231;-76
2022/07/23 03:00:25;;;;;;;0.50;0.50;;;16.80;99.90;;;;;;5092681;28;20203;-73
2022/07/23 03:03:14;;;;;;;0.40;0.40;;;16.80;99.90;;;;;;5093818;28;20612;-77
2022/07/23 03:06:03;;;;;;;0.40;0.40;;;16.80;99.90;;;;;;5093281;28;20541;-76
2022/07/23 03:08:51;;;;;;;0.43;0.43;;;17.00;99.90;;;;;;5092254;28;20630;-76
2022/07/23 03:11:40;;;;;;;1.60;1.60;;;16.90;99.90;;;;;;5092252;28;20204;-76
2022/07/23 03:14:28;;;;;;;0.50;0.50;;;16.90;99.90;;;;;;5093797;28;20673;-77
2022/07/23 03:17:17;;;;;;;0.40;0.40;;;17.00;99.90;;;;;;5093437;28;20220;-74
2022/07/23 03:20:06;;;;;;;0.40;0.40;;;17.00;99.90;;;;;;5093389;28;20200;-74
2022/07/23 03:22:56;;;;;;;0.40;0.40;;;17.10;99.90;;;;;;5093167;28;20211;-77
2022/07/23 03:25:44;;;;;;;0.90;0.80;;;17.10;99.90;;;;;;5092160;28;20247;-76
2022/07/23 03:28:38;;;;;;;0.40;0.40;;;17.10;99.90;;;;;;5092867;28;20246;-77
2022/07/23 03:31:27;;;;;;;0.65;0.65;;;17.10;99.90;;;;;;5092352;28;20746;-76
2022/07/23 03:34:15;;;;;;;0.50;0.50;;;17.20;99.90;;;;;;5093508;28;20211;-72
2022/07/23 03:37:03;;;;;;;1.05;1.05;;;17.20;99.90;;;;;;5093573;28;20253;-75
2022/07/23 03:39:54;;;;;;;0.50;0.50;;;17.10;99.90;;;;;;5092368;28;20203;-75
2022/07/23 03:42:43;;;;;;;0.50;0.50;;;17.10;99.90;;;;;;5092667;28;20192;-74
2022/07/23 03:45:31;;;;;;;0.50;0.50;;;17.00;99.90;;;;;;5091807;28;20555;-75
2022/07/23 03:48:19;;;;;;;3.13;1.58;;;17.00;99.90;;;;;;5092356;28;20251;-77
2022/07/23 03:51:08;;;;;;;0.50;0.50;;;17.10;99.90;;;;;;5091756;28;20202;-76
2022/07/23 03:53:56;;;;;;;0.40;0.40;;;17.10;99.90;;;;;;5091512;28;20204;-77
2022/07/23 03:56:45;;;;;;;0.40;0.40;;;17.10;99.90;;;;;;5092182;28;20565;-77
2022/07/23 03:59:33;;;;;;;0.40;0.40;;;17.10;99.90;;;;;;5092802;28;20200;-75
2022/07/23 04:02:21;;;;;;;0.40;0.40;;;17.20;99.90;;;;;;5092606;28;20227;-75
2022/07/23 04:05:10;;;;;;;0.50;0.50;;;17.20;99.90;;;;;;5091904;28;20269;-74
2022/07/23 04:07:58;;;;;;;0.40;0.40;;;17.20;99.90;;;;;;5092955;28;20212;-71
2022/07/23 04:10:46;;;;;;;0.50;0.50;;;17.20;99.90;;;;;;5091218;28;20196;-74
2022/07/23 04:13:35;;;;;;;0.40;0.40;;;17.20;99.90;;;;;;5092932;28;20196;-74
2022/07/23 04:16:24;;;;;;;0.40;0.40;;;17.10;99.90;;;;;;5092661;28;20613;-75
2022/07/23 04:19:12;;;;;;;0.50;0.50;;;17.00;99.90;;;;;;5092248;28;20965;-74
2022/07/23 04:22:00;;;;;;;0.50;0.50;;;16.90;99.90;;;;;;5091539;28;20204;-72
2022/07/23 04:24:49;;;;;;;0.40;0.40;;;16.80;99.90;;;;;;5091750;28;20196;-75
2022/07/23 04:27:37;;;;;;;0.50;0.50;;;16.60;99.90;;;;;;5091113;28;20353;-73
2022/07/23 04:30:26;;;;;;;0.50;0.50;;;16.60;99.90;;;;;;5091886;28;20674;-75
2022/07/23 04:33:14;;;;;;;0.50;0.50;;;16.50;99.90;;;;;;5093028;28;20196;-74
2022/07/23 04:36:03;;;;;;;0.40;0.40;;;16.40;99.90;;;;;;5091630;28;20192;-73
2022/07/23 04:38:51;;;;;;;0.40;0.40;;;16.30;99.90;;;;;;5092765;28;20256;-72
2022/07/23 04:41:40;;;;;;;0.45;0.45;;;16.20;99.90;;;;;;5092370;28;20203;-73
2022/07/23 04:44:28;;;;;;;0.40;0.40;;;16.30;99.90;;;;;;5091995;28;20696;-75
2022/07/23 04:47:17;;;;;;;0.40;0.40;;;16.40;99.90;;;;;;5091727;28;20224;-75
2022/07/23 04:50:06;;;;;;;0.40;0.40;;;16.40;99.90;;;;;;5092303;28;20203;-74
2022/07/23 04:52:54;;;;;;;0.50;0.50;;;16.50;99.90;;;;;;5091731;28;20191;-72
2022/07/23 04:55:42;;;;;;;0.47;0.47;;;16.50;99.90;;;;;;5091868;28;20223;-72
2022/07/23 04:58:31;;;;;;;0.40;0.40;;;16.60;99.90;;;;;;5091828;28;20235;-73
2022/07/23 05:01:19;;;;;;;0.40;0.40;;;16.60;99.90;;;;;;5090769;28;20204;-71
2022/07/23 05:04:09;;;;;;;0.50;0.50;;;16.60;99.90;;;;;;5090589;28;20221;-73
2022/07/23 05:06:57;;;;;;;0.40;0.40;;;16.60;99.90;;;;;;5091982;28;20265;-73
2022/07/23 05:09:45;;;;;;;0.40;0.40;;;16.70;99.90;;;;;;5090429;28;20204;-74
2022/07/23 05:12:33;;;;;;;0.50;0.50;;;16.70;99.90;;;;;;5091653;28;20207;-72
2022/07/23 05:15:22;;;;;;;0.50;0.50;;;16.80;99.90;;;;;;5092104;28;20586;-73
2022/07/23 05:18:10;;;;;;;0.40;0.40;;;16.80;99.90;;;;;;5091060;28;20219;-70
2022/07/23 05:21:00;;;;;;;0.40;0.40;;;16.80;99.90;;;;;;5090465;28;20192;-72
2022/07/23 05:23:48;;;;;;;0.50;0.50;;;16.80;99.90;;;;;;5091810;28;20640;-73
2022/07/23 05:26:36;;;;;;;0.60;0.60;;;16.70;99.90;;;;;;5091986;28;20295;-70
2022/07/23 05:29:24;;;;;;;0.40;0.40;;;16.70;99.90;;;;;;5091599;28;20215;-71
2022/07/23 05:32:12;;;;;;;0.40;0.40;;;16.70;99.90;;;;;;5090239;28;20648;-71
2022/07/23 05:35:00;;;;;;;0.40;0.40;;;16.70;99.90;;;;;;5091471;28;20207;-73
2022/07/23 05:37:52;;;;;;;0.50;0.50;;;16.70;99.90;;;;;;5091708;28;20329;-71
2022/07/23 05:40:40;;;;;;;0.50;0.50;;;16.60;99.90;;;;;;5090124;28;20200;-73
2022/07/23 05:43:29;;;;;;;0.40;0.40;;;16.50;99.90;;;;;;5090649;28;20200;-71
2022/07/23 05:46:17;;;;;;;0.50;0.50;;;16.60;99.90;;;;;;5091368;28;20207;-73
2022/07/23 05:49:05;;;;;;;0.43;0.43;;;16.60;99.90;;;;;;5089620;28;20223;-73
2022/07/23 05:51:54;;;;;;;0.50;0.50;;;16.70;99.90;;;;;;5091165;28;20204;-74
2022/07/23 05:54:44;;;;;;;0.50;0.50;;;16.70;99.90;;;;;;5091061;28;20204;-71
2022/07/23 05:57:32;;;;;;;0.50;0.50;;;16.80;99.90;;;;;;5091162;28;20220;-72
2022/07/23 06:00:20;;;;;;;0.50;0.50;;;16.90;99.90;;;;;;5090250;28;20276;-70
2022/07/23 06:03:08;;;;;;;0.50;0.50;;;17.00;99.90;;;;;;5070843;28;20200;-73
2022/07/23 06:05:56;;;;;;;0.50;0.50;;;17.00;99.90;;;;;;5070969;28;20205;-73
2022/07/23 06:08:44;;;;;;;0.40;0.40;;;17.10;99.90;;;;;;5072388;28;20231;-72
2022/07/23 06:11:34;;;;;;;0.40;0.40;;;17.20;99.90;;;;;;5074449;28;20712;-73
2022/07/23 06:14:22;;;;;;;0.40;0.40;;;17.40;99.90;;;;;;5073639;28;20197;-72
2022/07/23 06:17:10;;;;;;;0.50;0.50;;;17.70;99.90;;;;;;5073576;28;20192;-71
2022/07/23 06:19:58;;;;;;;0.40;0.40;;;17.60;99.90;;;;;;5073477;28;20209;-75
2022/07/23 06:22:46;;;;;;;0.68;0.68;;;17.80;99.90;;;;;;5075224;28;20677;-74
2022/07/23 06:25:34;;;;;;;0.40;0.40;;;17.80;99.90;;;;;;5073209;28;20622;-76
2022/07/23 06:28:24;;;;;;;0.40;0.40;;;17.90;99.90;;;;;;5073849;28;20229;-71
2022/07/23 06:31:12;;;;;;;0.45;0.45;;;17.90;99.90;;;;;;5073980;28;20590;-70
2022/07/23 06:34:00;;;;;;;0.40;0.40;;;17.90;99.90;;;;;;5073692;28;20270;-69
2022/07/23 06:36:48;;;;;;;0.50;0.50;;;17.80;99.90;;;;;;5074308;28;20713;-72
2022/07/23 06:39:36;;;;;;;0.43;0.43;;;17.80;99.90;;;;;;5073620;28;20205;-70
2022/07/23 06:42:24;;;;;;;0.40;0.40;;;17.80;99.90;;;;;;5073039;28;20200;-71
2022/07/23 06:45:14;;;;;;;0.40;0.40;;;17.80;99.90;;;;;;5073253;28;20205;-72
2022/07/23 06:48:03;;;;;;;0.50;0.50;;;17.90;99.90;;;;;;5073343;28;20716;-73
2022/07/23 06:50:52;;;;;;;0.40;0.40;;;17.80;99.90;;;;;;5073545;28;20702;-71
2022/07/23 06:53:40;;;;;;;0.40;0.40;;;17.80;99.90;;;;;;5072703;28;20692;-72
2022/07/23 06:56:29;;;;;;;0.40;0.40;;;17.90;99.90;;;;;;5075385;28;20211;-71
2022/07/23 06:59:17;;;;;;;0.50;0.50;;;18.10;99.90;;;;;;5093281;28;20240;-70
2022/07/23 07:02:06;;;;;;;0.50;0.50;;;18.20;99.90;;;;;;5092623;28;20200;-73
2022/07/23 07:04:56;;;;;;;0.40;0.40;;;18.20;99.90;;;;;;5092266;28;20208;-70
2022/07/23 07:07:51;;;;;;;0.40;0.40;;;18.40;99.90;;;;;;5093070;28;20223;-73
2022/07/23 07:10:40;;;;;;;0.40;0.40;;;18.50;99.90;;;;;;5093398;28;20223;-71
2022/07/23 07:13:28;;;;;;;1.10;1.10;;;18.60;99.90;;;;;;5093323;28;20207;-73
2022/07/23 07:16:16;;;;;;;0.40;0.40;;;18.80;99.90;;;;;;5092406;28;20207;-72
2022/07/23 07:19:06;;;;;;;0.40;0.40;;;18.80;99.90;;;;;;5094239;28;20216;-74
2022/07/23 07:21:54;;;;;;;0.40;0.40;;;18.60;99.90;;;;;;5093044;28;20326;-75
2022/07/23 07:24:42;;;;;;;0.40;0.40;;;18.40;99.90;;;;;;5093007;28;20207;-72
2022/07/23 07:27:30;;;;;;;0.40;0.40;;;18.30;99.90;;;;;;5093411;28;20224;-71
2022/07/23 07:30:18;;;;;;;0.45;0.45;;;18.20;99.90;;;;;;5091874;28;20203;-74
2022/07/23 07:33:07;;;;;;;0.50;0.50;;;18.00;99.90;;;;;;5092065;28;20193;-70
2022/07/23 07:35:56;;;;;;;0.50;0.50;;;18.00;99.90;;;;;;5092810;28;20204;-71
2022/07/23 07:38:45;;;;;;;0.40;0.40;;;18.00;99.90;;;;;;5093129;28;20297;-73
2022/07/23 07:41:33;;;;;;;0.40;0.40;;;18.10;99.90;;;;;;5093065;28;20200;-70
2022/07/23 07:44:21;;;;;;;0.40;0.40;;;18.40;99.90;;;;;;5093649;28;20230;-72
2022/07/23 07:47:09;;;;;;;0.50;0.50;;;18.70;99.90;;;;;;5092266;28;20203;-70
2022/07/23 07:49:57;;;;;;;0.40;0.40;;;18.90;99.90;;;;;;5092154;28;20210;-70
2022/07/23 07:52:47;;;;;;;0.50;0.50;;;19.10;99.90;;;;;;5093170;28;20683;-71
2022/07/23 07:55:36;;;;;;;0.40;0.40;;;19.00;99.90;;;;;;5090978;28;20196;-70
2022/07/23 07:58:25;;;;;;;0.50;0.50;;;18.70;99.90;;;;;;5092385;28;20220;-73
2022/07/23 08:01:13;;;;;;;0.50;0.50;;;18.60;99.90;;;;;;5092355;28;20231;-74
2022/07/23 08:04:01;;;;;;;0.50;0.50;;;18.70;99.90;;;;;;5091592;28;20204;-76
2022/07/23 08:06:50;;;;;;;0.50;0.50;;;18.90;99.90;;;;;;5092454;28;20200;-70
2022/07/23 08:09:40;;;;;;;0.50;0.50;;;19.30;99.90;;;;;;5091481;28;20219;-70
2022/07/23 08:12:28;;;;;;;0.40;0.40;;;20.10;99.90;;;;;;5093307;28;20348;-70
2022/07/23 08:15:17;;;;;;;1.02;0.85;;;20.80;99.90;;;;;;5093168;28;20976;-71
2022/07/23 08:18:06;;;;;;;0.50;0.50;;;20.90;99.90;;;;;;5092130;28;20216;-75
2022/07/23 08:20:54;;;;;;;0.63;0.63;;;20.40;99.90;;;;;;5091627;28;20214;-77
2022/07/23 08:23:42;;;;;;;0.40;0.40;;;20.00;99.90;;;;;;5091671;28;20200;-76
2022/07/23 08:26:31;;;;;;;0.40;0.40;;;19.80;99.90;;;;;;5091604;28;20204;-71
2022/07/23 08:29:19;;;;;;;0.63;0.63;;;19.80;99.90;;;;;;5090987;28;20625;-72
2022/07/23 08:32:14;;;;;;;0.70;0.70;;;19.70;99.90;;;;;;5091632;28;20331;-76
2022/07/23 08:35:27;;;;;;;2.15;2.05;;;19.50;99.90;;;;;;5092135;28;20785;-76
2022/07/23 08:38:18;;;;;;;1.27;1.27;;;19.30;99.90;;;;;;5092466;28;20220;-71
2022/07/23 08:41:08;;;;;;;2.35;1.02;;;19.20;99.90;;;;;;5091709;28;20203;-73
2022/07/23 08:44:00;;;;;;;0.40;0.40;;;19.30;99.90;;;;;;5093108;28;20193;-76
2022/07/23 08:46:49;;;;;;;1.05;0.90;;;19.40;99.90;;;;;;5091886;28;20203;-73
2022/07/23 08:49:38;;;;;;;0.40;0.40;;;20.00;99.90;;;;;;5098833;28;20730;-70
2022/07/23 08:52:27;;;;;;;1.52;0.98;;;20.30;99.90;;;;;;5103655;28;20207;-75
2022/07/23 08:55:17;;;;;;;0.40;0.40;;;20.40;99.90;;;;;;5106108;28;20227;-75
2022/07/23 08:58:05;;;;;;;0.40;0.40;;;20.50;99.90;;;;;;5104821;28;20235;-71
2022/07/23 09:00:56;;;;;;;1.13;1.02;;;20.70;99.90;;;;;;5101086;28;20203;-70
2022/07/23 09:03:44;;;;;;;0.40;0.40;;;20.90;99.90;;;;;;5102261;28;20212;-71
2022/07/23 09:06:33;;;;;;;0.40;0.40;;;20.60;99.90;;;;;;5104604;28;20287;-71
2022/07/23 09:09:22;;;;;;;0.50;0.50;;;20.10;99.90;;;;;;5104400;28;20234;-73
2022/07/23 09:12:11;;;;;;;0.40;0.40;;;19.90;99.90;;;;;;5105257;28;20211;-71
2022/07/23 09:15:05;;;;;;;0.50;0.50;;;19.80;99.90;;;;;;5102744;28;20204;-73
2022/07/23 09:17:55;;;;;;;1.10;1.00;;;19.80;99.90;;;;;;5099981;28;20231;-76
2022/07/23 09:20:44;;;;;;;0.40;0.40;;;20.00;99.90;;;;;;5101392;28;20200;-71
2022/07/23 09:23:38;;;;;;;0.40;0.40;;;20.30;99.90;;;;;;5105571;28;20215;-72
2022/07/23 09:26:33;;;;;;;0.50;0.50;;;20.90;99.90;;;;;;5101544;28;20214;-72
2022/07/23 09:29:22;;;;;;;0.50;0.50;;;21.20;99.90;;;;;;5099488;28;20212;-71
2022/07/23 09:32:14;;;;;;;0.40;0.40;;;21.40;99.90;;;;;;5092550;28;20188;-70
2022/07/23 09:35:04;;;;;;;1.20;1.02;;;21.60;99.90;;;;;;5092822;28;20196;-70
2022/07/23 09:38:02;;;;;;;0.45;0.45;;;21.40;99.90;;;;;;5092008;28;20219;-71
2022/07/23 09:41:06;;;;;;;0.40;0.40;;;21.20;99.90;;;;;;5071848;28;20204;-71
2022/07/23 09:43:57;;;;;;;3.15;1.23;;;21.60;99.90;;;;;;5073851;28;20215;-71
2022/07/23 09:46:46;;;;;;;0.80;0.80;;;22.00;99.90;;;;;;5075386;28;20282;-73
2022/07/23 09:49:34;;;;;;;0.40;0.40;;;22.10;99.90;;;;;;5076126;28;20224;-71
2022/07/23 09:52:31;;;;;;;1.10;0.85;;;22.20;99.90;;;;;;5075535;28;20197;-73
2022/07/23 09:55:35;;;;;;;0.40;0.40;;;22.40;99.90;;;;;;5076909;28;20197;-72
2022/07/23 09:58:26;;;;;;;0.50;0.50;;;22.10;99.90;;;;;;5095210;28;20239;-70
2022/07/23 10:01:14;;;;;;;0.40;0.40;;;22.00;99.90;;;;;;5094779;28;20203;-70
2022/07/23 10:04:03;;;;;;;0.40;0.40;;;22.00;99.90;;;;;;5095041;28;20204;-70
2022/07/23 10:06:54;;;;;;;0.40;0.40;;;21.90;99.90;;;;;;5095715;28;20211;-70
2022/07/23 10:09:45;;;;;;;0.40;0.40;;;22.00;99.90;;;;;;5095421;28;20268;-70
2022/07/23 10:12:45;;;;;;;0.45;0.45;;;22.10;99.90;;;;;;5095918;28;20673;-70
2022/07/23 10:15:33;;;;;;;0.80;0.80;;;22.60;99.90;;;;;;5095391;28;20196;-71
2022/07/23 10:18:22;;;;;;;0.70;0.70;;;22.60;99.90;;;;;;5095605;28;20222;-70
2022/07/23 10:21:11;;;;;;;0.40;0.40;;;22.20;99.90;;;;;;5095569;28;20196;-70
2022/07/23 10:24:18;;;;;;;1.17;1.10;;;22.00;99.90;;;;;;5095704;28;20200;-75
2022/07/23 10:27:27;;;;;;;0.73;0.73;;;21.90;99.90;;;;;;5094307;28;20207;-72
2022/07/23 10:30:21;;;;;;;0.40;0.40;;;21.80;99.90;;;;;;5093327;28;20208;-72
2022/07/23 10:33:24;;;;;;;2.35;1.58;;;21.90;99.90;;;;;;5095306;28;20212;-70
2022/07/23 10:36:21;;;;;;;0.43;0.43;;;22.10;99.90;;;;;;5095396;28;20224;-71
2022/07/23 10:39:15;;;;;;;1.02;0.82;;;22.00;99.90;;;;;;5094625;28;20636;-69
2022/07/23 10:42:13;;;;;;;0.40;0.40;;;22.00;99.90;;;;;;5093747;28;20203;-70
2022/07/23 10:45:01;;;;;;;0.50;0.50;;;22.10;99.90;;;;;;5093868;28;20207;-69
2022/07/23 10:47:51;;;;;;;0.50;0.50;;;22.20;99.90;;;;;;5095056;28;20814;-71
2022/07/23 10:50:40;;;;;;;0.40;0.40;;;22.40;99.90;;;;;;5093277;28;20711;-71
2022/07/23 10:53:28;;;;;;;0.40;0.40;;;22.30;99.90;;;;;;5094527;28;20196;-73
2022/07/23 10:56:16;;;;;;;0.40;0.40;;;22.30;99.90;;;;;;5093410;28;20578;-71
2022/07/23 10:59:06;;;;;;;0.40;0.40;;;22.50;99.90;;;;;;5095221;28;20227;-72
2022/07/23 11:01:54;;;;;;;0.40;0.40;;;22.90;99.90;;;;;;5086991;22;20299;-73
2022/07/23 11:04:53;;;;;;;0.80;0.70;;;23.60;99.90;;;;;;5054894;28;20202;-73
2022/07/23 11:08:24;;;;;;;0.40;0.40;;;23.90;99.90;;;;;;5054137;28;20234;-73
2022/07/23 11:11:13;;;;;;;0.40;0.40;;;24.10;99.90;;;;;;5053090;28;20251;-73
2022/07/23 11:14:01;;;;;;;0.40;0.40;;;24.10;99.90;;;;;;5053664;28;20193;-73
2022/07/23 11:16:56;;;;;;;0.50;0.50;;;24.30;99.90;;;;;;5054451;28;20255;-73
2022/07/23 11:20:18;;;;;;;4.53;1.50;;;24.50;99.90;;;;;;5053361;28;20347;-73
2022/07/23 11:23:06;;;;;;;0.55;0.55;;;24.70;99.90;;;;;;5054992;28;20209;-74
2022/07/23 11:25:55;;;;;;;1.48;0.93;;;24.90;99.90;;;;;;5053131;28;20751;-74
2022/07/23 11:28:43;;;;;;;0.40;0.40;;;25.10;99.90;;;;;;5052183;28;20205;-74
2022/07/23 11:31:31;;;;;;;0.50;0.50;;;24.90;99.90;;;;;;5053870;28;20225;-73
2022/07/23 11:34:30;;;;;;;0.40;0.40;;;24.60;99.90;;;;;;5053837;28;20299;-74
2022/07/23 11:37:38;;;;;;;0.40;0.40;;;24.30;99.90;;;;;;5054258;28;20685;-74
2022/07/23 11:40:27;;;;;;;12.95;2.05;;;24.20;99.90;;;;;;5052273;28;20220;-73
2022/07/23 11:43:16;;;;;;;2.45;1.50;;;24.30;99.90;;;;;;5055136;28;20614;-73
2022/07/23 11:46:04;;;;;;;0.40;0.40;;;24.30;99.90;;;;;;5052566;28;20229;-73
2022/07/23 11:49:03;;;;;;;1.95;1.85;;;24.40;99.90;;;;;;5054696;28;20577;-74
2022/07/23 11:52:05;;;;;;;0.63;0.63;;;24.40;99.90;;;;;;5054764;28;20602;-74
2022/07/23 11:54:57;;;;;;;0.50;0.50;;;24.00;99.90;;;;;;5054053;28;20212;-75
2022/07/23 11:57:45;;;;;;;0.73;0.50;;;23.60;99.90;;;;;;5040028;28;20693;-75
2022/07/23 12:00:34;;;;;;;0.40;0.40;;;23.50;99.90;;;;;;5032464;28;20233;-75
2022/07/23 12:03:28;;;;;;;0.50;0.50;;;23.70;99.90;;;;;;5033844;28;20208;-75
2022/07/23 12:06:16;;;;;;;0.40;0.40;;;23.90;99.90;;;;;;5032454;28;20205;-73
2022/07/23 12:09:07;;;;;;;0.40;0.40;;;24.20;99.90;;;;;;5032973;28;20213;-71
2022/07/23 12:11:59;;;;;;;0.50;0.50;;;24.60;99.90;;;;;;5032251;28;20218;-74
2022/07/23 12:14:49;;;;;;;0.40;0.40;;;25.00;99.90;;;;;;5032827;28;20211;-74
2022/07/23 12:17:40;;;;;;;0.45;0.43;;;25.30;99.90;;;;;;5031802;28;20194;-74
2022/07/23 12:20:31;;;;;;;0.80;0.80;;;25.70;99.90;;;;;;5031607;28;20218;-74
2022/07/23 12:23:21;;;;;;;0.70;0.65;;;25.40;99.90;;;;;;5032914;28;20204;-73
2022/07/23 12:26:11;;;;;;;0.40;0.40;;;25.30;99.90;;;;;;5032733;28;20229;-73
2022/07/23 12:28:59;;;;;;;0.40;0.40;;;25.40;99.90;;;;;;5032053;28;20210;-74
2022/07/23 12:31:47;;;;;;;0.40;0.40;;;25.60;99.90;;;;;;5031417;28;20230;-73
2022/07/23 12:34:36;;;;;;;2.15;1.50;;;25.70;99.90;;;;;;5032189;28;20285;-73
2022/07/23 12:37:31;;;;;;;0.40;0.40;;;25.30;99.90;;;;;;5036664;28;20280;-73
2022/07/23 12:40:26;;;;;;;2.85;1.27;;;24.80;99.90;;;;;;5053719;28;20208;-72
2022/07/23 12:43:22;;;;;;;0.77;0.60;;;24.60;99.90;;;;;;5051890;28;20209;-73
2022/07/23 12:46:14;;;;;;;0.93;0.90;;;24.50;99.90;;;;;;5053729;28;20201;-74
2022/07/23 12:49:03;;;;;;;1.27;1.27;;;24.80;99.90;;;;;;5052262;28;20690;-74
2022/07/23 12:51:52;;;;;;;0.77;0.63;;;25.70;99.90;;;;;;5052272;28;20248;-73
2022/07/23 12:54:40;;;;;;;1.02;1.02;;;26.40;99.90;;;;;;5051315;28;20247;-74
2022/07/23 12:57:47;;;;;;;0.40;0.40;;;27.00;99.90;;;;;;5040712;28;20281;-75
2022/07/23 13:00:57;;;;;;;2.50;1.40;;;28.60;99.90;;;;;;5031528;28;20260;-74
2022/07/23 13:03:56;;;;;;;0.95;0.95;;;29.80;96.90;;;;;;5032363;28;20678;-76
2022/07/23 13:06:48;;;;;;;0.40;0.40;;;31.50;93.60;;;;;;5032774;28;20209;-75
2022/07/23 13:09:36;;;;;;;0.40;0.40;;;33.10;89.30;;;;;;5045985;28;20237;-75
2022/07/23 13:12:30;;;;;;;0.60;0.60;;;34.80;80.20;;;;;;5051074;28;20284;-75
2022/07/23 13:15:18;;;;;;;0.57;0.50;;;35.30;75.00;;;;;;5052459;28;20200;-74
2022/07/23 13:18:09;;;;;;;0.70;0.70;;;34.60;74.20;;;;;;5054588;28;20236;-75
2022/07/23 13:20:58;;;;;;;0.50;0.50;;;32.60;75.40;;;;;;5055906;28;20231;-75
2022/07/23 13:23:46;;;;;;;0.70;0.70;;;32.70;76.60;;;;;;5057460;28;20205;-75
2022/07/23 13:26:34;;;;;;;0.40;0.40;;;34.20;73.00;;;;;;5058507;28;20205;-74
2022/07/23 13:29:22;;;;;;;0.55;0.55;;;34.30;70.10;;;;;;5058175;28;20209;-76
2022/07/23 13:32:13;;;;;;;0.40;0.40;;;34.00;69.10;;;;;;5055037;28;20705;-75
2022/07/23 13:35:04;;;;;;;1.05;1.05;;;34.70;68.00;;;;;;5056192;28;20705;-75
2022/07/23 13:37:52;;;;;;;0.60;0.60;;;35.40;65.90;;;;;;5054759;28;20553;-75
2022/07/23 13:40:42;;;;;;;0.52;0.52;;;36.10;62.90;;;;;;5042946;28;20496;-75
2022/07/23 13:43:32;;;;;;;0.70;0.70;;;37.20;60.70;;;;;;5035462;28;20288;-75
2022/07/23 13:46:23;;;;;;;0.47;0.47;;;35.70;60.60;;;;;;5035359;28;20213;-74
2022/07/23 13:49:11;;;;;;;1.00;1.00;;;33.70;66.10;;;;;;5039272;28;20193;-74
2022/07/23 13:52:02;;;;;;;0.55;0.55;;;33.40;65.90;;;;;;5056841;28;20767;-75
2022/07/23 13:54:53;;;;;;;0.40;0.40;;;33.50;65.50;;;;;;5055404;28;20208;-75
2022/07/23 13:57:41;;;;;;;0.65;0.65;;;35.30;62.80;;;;;;5044645;28;20202;-75
2022/07/23 14:00:31;;;;;;;0.40;0.40;;;37.00;59.70;;;;;;5035478;28;20218;-75
2022/07/23 14:03:39;;;;;;;1.02;0.45;;;37.10;58.20;;;;;;5035753;28;20291;-75
2022/07/23 14:06:28;;;;;;;0.40;0.40;;;37.30;56.70;;;;;;5034960;28;20210;-75
2022/07/23 14:09:22;;;;;;;0.60;0.60;;;37.60;57.80;;;;;;5036080;28;20233;-74
2022/07/23 14:12:12;;;;;;;0.40;0.40;;;38.40;55.60;;;;;;5034987;28;20233;-75
2022/07/23 14:15:06;;;;;;;0.50;0.50;;;38.90;54.80;;;;;;5035764;28;20205;-75
2022/07/23 14:18:00;;;;;;;0.40;0.40;;;;;;;;;;5035273;28;20206;-76
2022/07/23 14:20:48;;;;;;;0.80;0.80;;;38.30;53.00;;;;;;5035035;28;20225;-74
2022/07/23 14:23:36;;;;;;;2.65;1.00;;;38.10;53.20;;;;;;5035592;28;20701;-75
2022/07/23 14:26:28;;;;;;;0.60;0.60;;;36.90;53.40;;;;;;5035735;28;20702;-76
2022/07/23 14:29:16;;;;;;;0.50;0.50;;;35.00;56.20;;;;;;5034309;28;20213;-75
2022/07/23 14:32:05;;;;;;;0.55;0.55;;;34.60;56.80;;;;;;5035229;28;20225;-75
2022/07/23 14:34:54;;;;;;;2.33;0.80;;;34.60;57.50;;;;;;5035953;28;20208;-75
2022/07/23 14:37:46;;;;;;;0.45;0.45;;;34.90;57.70;;;;;;5034786;28;20205;-76
2022/07/23 14:40:35;;;;;;;1.75;1.67;;;35.80;56.10;;;;;;5034220;28;20309;-75
2022/07/23 14:43:24;;;;;;;0.50;0.50;;;36.80;54.70;;;;;;5035435;28;20489;-75
2022/07/23 14:46:13;;;;;;;0.40;0.40;;;37.10;53.30;;;;;;5035698;28;20580;-76